Time;durP1;ratioP1;P1;durP2;ratioP2;P2;SDS_P1;SDS_P2;PMS_P1;PMS_P2;Temp;Humidity;BMP_temperature;BMP_pressure;BME280_temperature;BME280_humidity;BME280_pressure;Samples;Min_cycle;Max_cycle;Signal;HPM_P1;HPM_P2
2021/12/11 00:00:17;;;;;;;3.88;3.10;;;13.70;61.80;;;;;;5033753;28;20049;-74
2021/12/11 00:02:44;;;;;;;4.80;3.17;;;13.50;62.10;;;;;;5032691;28;20045;-74
2021/12/11 00:05:11;;;;;;;4.00;3.00;;;;;;;;;;5033303;28;20052;-74
2021/12/11 00:07:38;;;;;;;3.78;3.13;;;13.30;61.70;;;;;;5034070;28;20089;-74
2021/12/11 00:10:10;;;;;;;3.67;3.08;;;13.60;61.90;;;;;;5033015;28;20152;-74
2021/12/11 00:12:44;;;;;;;4.63;2.88;;;13.60;62.20;;;;;;5033109;28;20133;-74
2021/12/11 00:15:12;;;;;;;4.43;3.22;;;13.50;62.10;;;;;;5033206;28;20057;-74
2021/12/11 00:17:39;;;;;;;4.10;3.35;;;13.50;61.90;;;;;;5032885;28;20148;-74
2021/12/11 00:20:08;;;;;;;4.30;3.20;;;13.40;62.00;;;;;;5033083;28;20129;-74
2021/12/11 00:22:35;;;;;;;4.50;3.20;;;13.30;57.40;;;;;;5032590;28;20129;-74
2021/12/11 00:25:05;;;;;;;4.40;3.17;;;13.50;62.30;;;;;;5033921;28;20144;-74
2021/12/11 00:27:32;;;;;;;3.88;3.08;;;13.40;62.00;;;;;;5032603;28;20059;-74
2021/12/11 00:30:00;;;;;;;4.53;3.10;;;13.30;62.00;;;;;;5032952;28;20136;-74
2021/12/11 00:32:29;;;;;;;4.32;3.30;;;13.50;59.60;;;;;;5032772;28;20140;-74
2021/12/11 00:34:57;;;;;;;4.78;3.35;;;13.30;61.90;;;;;;5031691;28;20125;-74
2021/12/11 00:37:24;;;;;;;5.22;3.55;;;;;;;;;;5032399;28;20469;-74
2021/12/11 00:39:52;;;;;;;4.80;3.33;;;13.30;55.00;;;;;;5032320;28;20661;-74
2021/12/11 00:42:20;;;;;;;4.00;3.20;;;13.40;62.30;;;;;;5032326;28;20138;-74
2021/12/11 00:44:48;;;;;;;3.53;3.05;;;13.30;62.10;;;;;;5031952;28;20458;-74
2021/12/11 00:47:18;;;;;;;4.20;3.20;;;13.70;55.30;;;;;;5032468;28;20057;-74
2021/12/11 00:49:48;;;;;;;4.57;3.35;;;13.30;62.10;;;;;;5032225;28;20103;-74
2021/12/11 00:52:15;;;;;;;3.20;2.75;;;13.50;62.40;;;;;;5032008;28;20056;-74
2021/12/11 00:54:42;;;;;;;4.43;3.30;;;;;;;;;;5032243;28;20554;-73
2021/12/11 00:57:11;;;;;;;3.92;3.33;;;13.80;62.60;;;;;;5031885;28;20104;-74
2021/12/11 00:59:38;;;;;;;3.85;3.05;;;;;;;;;;5032068;28;20581;-74
2021/12/11 01:02:05;;;;;;;3.35;3.00;;;13.20;62.40;;;;;;5031971;28;20053;-74
2021/12/11 01:04:40;;;;;;;4.22;3.40;;;13.20;55.00;;;;;;5031965;28;20138;-74
2021/12/11 01:07:15;;;;;;;4.65;3.63;;;13.40;62.40;;;;;;5031867;28;20517;-74
2021/12/11 01:09:47;;;;;;;4.20;3.33;;;13.10;59.90;;;;;;5032044;28;20064;-74
2021/12/11 01:12:16;;;;;;;3.63;3.15;;;13.10;62.10;;;;;;5031448;28;20045;-74
2021/12/11 01:14:51;;;;;;;4.50;3.00;;;13.20;55.00;;;;;;5031665;28;20045;-74
2021/12/11 01:17:22;;;;;;;4.75;3.42;;;13.60;55.30;;;;;;5047435;28;20053;-74
2021/12/11 01:19:52;;;;;;;4.65;3.28;;;13.10;62.20;;;;;;5048476;28;20059;-74
2021/12/11 01:22:32;;;;;;;3.40;2.78;;;13.10;58.00;;;;;;5031428;28;20138;-74
2021/12/11 01:24:59;;;;;;;6.20;3.70;;;13.00;62.20;;;;;;5031460;28;20133;-74
2021/12/11 01:27:26;;;;;;;4.32;3.15;;;;;;;;;;5031294;28;20156;-74
2021/12/11 01:29:56;;;;;;;3.83;3.20;;;13.00;62.20;;;;;;5048397;28;20132;-74
2021/12/11 01:32:23;;;;;;;5.15;3.70;;;;;;;;;;5031327;28;20057;-74
2021/12/11 01:34:51;;;;;;;3.95;3.20;;;13.10;62.50;;;;;;5031535;28;20124;-74
2021/12/11 01:37:18;;;;;;;5.45;3.78;;;13.10;62.20;;;;;;5031186;28;20080;-74
2021/12/11 01:39:45;;;;;;;4.68;3.60;;;12.90;55.60;;;;;;5047766;28;20132;-74
2021/12/11 01:42:20;;;;;;;4.07;3.20;;;13.20;62.30;;;;;;5032099;28;20087;-74
2021/12/11 01:44:47;;;;;;;4.47;3.10;;;;;;;;;;5031195;28;20136;-74
2021/12/11 01:47:16;;;;;;;4.43;3.25;;;12.80;62.10;;;;;;5047897;28;20061;-74
2021/12/11 01:49:46;;;;;;;3.85;3.08;;;13.00;62.20;;;;;;5031158;28;20134;-74
2021/12/11 01:52:15;;;;;;;5.05;3.65;;;13.00;62.50;;;;;;5030948;28;20401;-74
2021/12/11 01:54:44;;;;;;;4.13;3.47;;;12.90;59.10;;;;;;5031400;28;20115;-74
2021/12/11 01:57:13;;;;;;;4.22;3.28;;;12.70;55.50;;;;;;5030538;28;20060;-74
2021/12/11 01:59:41;;;;;;;4.47;3.38;;;13.00;62.30;;;;;;5030728;28;20079;-74
2021/12/11 02:02:09;;;;;;;4.65;3.45;;;13.00;62.30;;;;;;5030506;28;20135;-74
2021/12/11 02:04:37;;;;;;;5.00;3.50;;;12.80;62.40;;;;;;5030477;28;20132;-74
2021/12/11 02:07:07;;;;;;;5.50;3.80;;;12.90;62.20;;;;;;5030188;28;20132;-74
2021/12/11 02:09:37;;;;;;;4.45;3.40;;;13.00;62.50;;;;;;5030887;28;20136;-74
2021/12/11 02:12:07;;;;;;;4.57;3.42;;;13.00;55.00;;;;;;5030872;28;20085;-74
2021/12/11 02:14:39;;;;;;;4.88;3.50;;;;;;;;;;5011143;28;20054;-74
2021/12/11 02:17:06;;;;;;;3.80;3.22;;;;;;;;;;5011055;28;20061;-74
2021/12/11 02:19:36;;;;;;;4.20;3.30;;;13.00;62.30;;;;;;5011335;28;20140;-74
2021/12/11 02:22:09;;;;;;;4.57;3.45;;;12.80;62.40;;;;;;5011248;28;20464;-74
2021/12/11 02:24:37;;;;;;;4.50;3.30;;;12.50;54.70;;;;;;5010724;28;20586;-74
2021/12/11 02:27:07;;;;;;;4.82;3.83;;;13.00;55.00;;;;;;5010486;28;20586;-74
2021/12/11 02:29:36;;;;;;;3.88;3.40;;;12.90;56.20;;;;;;5010977;28;20535;-74
2021/12/11 02:32:06;;;;;;;4.13;3.22;;;13.10;62.40;;;;;;5010822;28;20081;-74
2021/12/11 02:34:35;;;;;;;4.97;3.50;;;12.90;61.90;;;;;;5030068;28;20088;-74
2021/12/11 02:37:04;;;;;;;4.47;3.53;;;13.10;62.30;;;;;;5030415;28;20474;-74
2021/12/11 02:39:36;;;;;;;4.80;3.80;;;13.10;58.60;;;;;;5030365;28;20136;-74
2021/12/11 02:42:04;;;;;;;4.95;3.72;;;13.50;57.80;;;;;;5030377;28;20144;-74
2021/12/11 02:44:33;;;;;;;4.43;3.53;;;13.20;62.40;;;;;;5030016;28;20041;-74
2021/12/11 02:47:10;;;;;;;5.13;3.63;;;12.90;62.20;;;;;;5030252;28;20168;-74
2021/12/11 02:49:41;;;;;;;4.15;3.38;;;13.10;54.70;;;;;;5046680;28;20136;-74
2021/12/11 02:52:10;;;;;;;4.32;3.40;;;13.20;62.00;;;;;;5030124;28;20081;-74
2021/12/11 02:54:40;;;;;;;4.78;3.90;;;12.80;61.70;;;;;;5030272;28;20537;-74
2021/12/11 02:57:10;;;;;;;4.28;3.63;;;13.10;62.00;;;;;;5030303;28;20185;-74
2021/12/11 02:59:42;;;;;;;6.30;4.00;;;12.90;61.60;;;;;;5030384;28;20128;-74
2021/12/11 03:02:11;;;;;;;5.03;3.75;;;13.20;54.50;;;;;;5029844;28;20060;-74
2021/12/11 03:04:43;;;;;;;3.75;3.35;;;13.20;62.00;;;;;;5030249;28;20076;-74
2021/12/11 03:07:12;;;;;;;4.43;3.47;;;13.40;61.90;;;;;;5029971;28;20081;-74
2021/12/11 03:09:44;;;;;;;4.30;3.53;;;13.40;55.50;;;;;;5030348;28;20064;-74
2021/12/11 03:12:11;;;;;;;4.93;3.50;;;13.40;61.90;;;;;;5029927;28;20131;-74
2021/12/11 03:14:38;;;;;;;4.70;3.67;;;13.30;61.90;;;;;;5046712;28;20081;-74
2021/12/11 03:17:05;;;;;;;4.20;3.40;;;13.40;61.90;;;;;;5030065;28;20085;-73
2021/12/11 03:19:33;;;;;;;4.10;3.33;;;13.50;61.70;;;;;;5046987;28;20498;-74
2021/12/11 03:22:01;;;;;;;4.68;3.50;;;13.30;54.20;;;;;;5030711;28;20136;-74
2021/12/11 03:24:28;;;;;;;5.18;3.95;;;13.40;61.80;;;;;;5029937;28;20059;-74
2021/12/11 03:26:57;;;;;;;4.93;3.70;;;13.20;61.40;;;;;;5029584;28;20712;-74
2021/12/11 03:29:24;;;;;;;4.10;3.15;;;;;;;;;;5030473;28;20081;-74
2021/12/11 03:31:51;;;;;;;4.43;3.50;;;13.50;61.70;;;;;;5046507;28;20137;-74
2021/12/11 03:34:19;;;;;;;4.30;3.53;;;13.50;54.20;;;;;;5029988;28;20467;-74
2021/12/11 03:36:47;;;;;;;4.00;3.50;;;13.50;60.80;;;;;;5029565;28;20145;-74
2021/12/11 03:39:17;;;;;;;4.20;3.45;;;13.50;54.20;;;;;;5031012;28;20084;-74
2021/12/11 03:41:45;;;;;;;4.13;3.20;;;13.30;61.20;;;;;;5033495;28;20471;-74
2021/12/11 03:44:13;;;;;;;4.40;3.60;;;13.40;54.10;;;;;;5033207;28;20050;-74
2021/12/11 03:46:40;;;;;;;3.85;3.30;;;;;;;;;;5034464;28;20583;-74
2021/12/11 03:49:10;;;;;;;4.22;3.55;;;13.20;61.20;;;;;;5050101;28;20534;-74
2021/12/11 03:51:39;;;;;;;4.00;3.22;;;13.40;61.20;;;;;;5033342;28;20057;-74
2021/12/11 03:54:07;;;;;;;5.65;3.20;;;13.50;54.00;;;;;;5033498;28;20084;-74
2021/12/11 03:56:34;;;;;;;4.57;3.20;;;;;;;;;;5033063;28;20064;-74
2021/12/11 03:59:07;;;;;;;4.55;3.72;;;13.60;61.20;;;;;;5033552;28;20156;-74
2021/12/11 04:01:36;;;;;;;4.55;3.55;;;13.40;61.30;;;;;;5033222;28;20053;-74
2021/12/11 04:04:04;;;;;;;4.35;3.15;;;13.60;61.30;;;;;;5033214;28;20057;-74
2021/12/11 04:06:31;;;;;;;4.15;3.00;;;13.70;61.40;;;;;;5033169;28;20068;-74
2021/12/11 04:09:00;;;;;;;3.97;3.47;;;13.60;53.90;;;;;;5033156;28;20128;-74
2021/12/11 04:11:30;;;;;;;4.95;3.65;;;13.60;53.90;;;;;;5032785;28;20140;-74
2021/12/11 04:13:59;;;;;;;4.97;3.28;;;13.90;61.50;;;;;;5033169;28;20141;-74
2021/12/11 04:16:26;;;;;;;4.38;3.47;;;13.60;61.30;;;;;;5032909;28;20164;-74
2021/12/11 04:18:54;;;;;;;4.75;3.78;;;13.60;53.90;;;;;;5033016;28;20536;-74
2021/12/11 04:21:21;;;;;;;4.63;3.38;;;;;;;;;;5032544;28;20080;-74
2021/12/11 04:23:48;;;;;;;4.43;3.42;;;13.60;60.90;;;;;;5049609;28;20088;-74
2021/12/11 04:26:14;;;;;;;4.35;3.40;;;13.40;61.10;;;;;;5032093;28;20128;-74
2021/12/11 04:28:42;;;;;;;6.55;3.35;;;;;;;;;;5032536;28;20115;-74
2021/12/11 04:31:10;;;;;;;4.55;3.35;;;13.60;61.00;;;;;;5032366;28;20053;-74
2021/12/11 04:33:39;;;;;;;4.88;3.50;;;13.60;53.70;;;;;;5032294;28;20053;-73
2021/12/11 04:36:10;;;;;;;4.25;3.42;;;13.60;61.20;;;;;;5032454;28;20053;-74
2021/12/11 04:38:37;;;;;;;4.03;3.42;;;13.60;60.90;;;;;;5032462;28;20060;-74
2021/12/11 04:41:05;;;;;;;5.15;3.67;;;13.60;60.90;;;;;;5032327;28;20061;-74
2021/12/11 04:43:32;;;;;;;4.28;3.47;;;13.70;56.20;;;;;;5032616;28;20045;-74
2021/12/11 04:46:01;;;;;;;4.32;3.30;;;13.60;53.70;;;;;;5032115;28;20695;-74
2021/12/11 04:48:35;;;;;;;3.72;2.85;;;13.50;61.00;;;;;;5032198;28;20132;-74
2021/12/11 04:51:12;;;;;;;3.92;3.28;;;13.30;60.60;;;;;;5032169;28;20092;-74
2021/12/11 04:53:53;;;;;;;4.40;3.33;;;13.50;61.00;;;;;;5032186;28;20057;-74
2021/12/11 04:56:51;;;;;;;4.35;3.30;;;13.60;53.60;;;;;;5032049;28;20136;-74
2021/12/11 04:59:40;;;;;;;5.20;3.63;;;14.10;55.40;;;;;;5032289;28;20053;-74
2021/12/11 05:02:20;;;;;;;5.80;3.92;;;13.70;60.90;;;;;;5031794;28;20057;-74
2021/12/11 05:05:05;;;;;;;4.72;3.60;;;;;;;;;;5032111;28;20050;-74
2021/12/11 05:07:38;;;;;;;4.72;3.40;;;;;;;;;;5032026;28;20049;-73
2021/12/11 05:10:15;;;;;;;4.85;3.80;;;13.70;61.00;;;;;;5031741;28;20049;-74
2021/12/11 05:12:42;;;;;;;4.20;3.35;;;;;;;;;;5032158;28;20100;-74
2021/12/11 05:15:11;;;;;;;4.68;3.60;;;13.70;60.80;;;;;;5048508;28;20049;-74
2021/12/11 05:17:38;;;;;;;4.45;3.38;;;;;;;;;;5031650;28;20046;-74
2021/12/11 05:20:06;;;;;;;5.47;3.40;;;13.40;59.90;;;;;;5032885;28;20077;-74
2021/12/11 05:22:32;;;;;;;5.53;3.80;;;13.60;56.00;;;;;;5031551;28;20124;-74
2021/12/11 05:24:59;;;;;;;4.57;3.50;;;;;;;;;;5031442;28;20136;-74
2021/12/11 05:27:28;;;;;;;6.30;3.72;;;13.60;53.40;;;;;;5031591;28;20144;-74
2021/12/11 05:29:57;;;;;;;5.07;3.78;;;13.60;60.80;;;;;;5031443;28;20057;-74
2021/12/11 05:32:25;;;;;;;4.90;3.65;;;13.50;60.50;;;;;;5031172;28;20132;-74
2021/12/11 05:34:52;;;;;;;4.72;3.47;;;;;;;;;;5031690;28;20517;-74
2021/12/11 05:37:19;;;;;;;5.95;3.75;;;13.70;60.60;;;;;;5047927;28;20132;-74
2021/12/11 05:39:46;;;;;;;5.20;3.78;;;13.70;56.80;;;;;;5031260;28;20132;-74
2021/12/11 05:42:13;;;;;;;4.50;3.75;;;13.70;55.90;;;;;;5031228;28;20091;-74
2021/12/11 05:44:41;;;;;;;4.93;3.38;;;13.60;58.60;;;;;;5047706;28;20128;-74
2021/12/11 05:47:08;;;;;;;5.78;4.05;;;13.60;60.80;;;;;;5047732;28;20141;-74
2021/12/11 05:49:36;;;;;;;5.15;3.83;;;13.70;60.60;;;;;;5031440;28;20132;-74
2021/12/11 05:52:04;;;;;;;4.97;3.65;;;13.60;53.30;;;;;;5030794;28;20080;-74
2021/12/11 05:54:32;;;;;;;4.70;3.58;;;;;;;;;;5030720;28;20145;-73
2021/12/11 05:57:02;;;;;;;5.10;3.75;;;13.70;60.50;;;;;;5047581;28;20061;-74
2021/12/11 05:59:30;;;;;;;4.60;3.63;;;13.60;60.50;;;;;;5031231;28;20115;-74
2021/12/11 06:02:00;;;;;;;5.53;3.65;;;13.80;60.80;;;;;;5030439;28;20136;-74
2021/12/11 06:04:34;;;;;;;4.78;3.33;;;13.60;53.30;;;;;;5031036;28;20144;-74
2021/12/11 06:07:03;;;;;;;5.20;3.60;;;13.60;60.60;;;;;;5030668;28;20129;-74
2021/12/11 06:09:30;;;;;;;5.20;3.58;;;;;;;;;;5031170;28;20422;-74
2021/12/11 06:11:59;;;;;;;5.28;3.60;;;13.70;60.70;;;;;;5030849;28;20083;-74
2021/12/11 06:14:29;;;;;;;5.00;3.42;;;13.70;53.30;;;;;;5030804;28;20510;-74
2021/12/11 06:16:56;;;;;;;5.78;3.92;;;;;;;;;;5030199;28;20133;-74
2021/12/11 06:19:25;;;;;;;6.15;3.78;;;13.70;60.60;;;;;;5030713;28;20076;-74
2021/12/11 06:21:53;;;;;;;5.30;4.00;;;13.60;60.10;;;;;;5030590;28;20508;-74
2021/12/11 06:24:20;;;;;;;4.88;3.47;;;13.70;60.40;;;;;;5031797;28;20052;-74
2021/12/11 06:26:47;;;;;;;4.85;3.80;;;13.70;54.40;;;;;;5030176;28;20124;-74
2021/12/11 06:29:13;;;;;;;4.20;3.55;;;13.30;60.20;;;;;;5030473;28;20064;-74
2021/12/11 06:31:42;;;;;;;5.93;4.20;;;;;;;;;;5030474;28;20409;-74
2021/12/11 06:34:09;;;;;;;5.03;3.70;;;13.40;60.40;;;;;;5030032;28;20148;-74
2021/12/11 06:36:37;;;;;;;4.80;3.70;;;13.70;53.20;;;;;;5031436;28;20084;-74
2021/12/11 06:39:07;;;;;;;4.70;3.53;;;13.70;53.20;;;;;;5047014;28;20479;-74
2021/12/11 06:41:37;;;;;;;5.43;3.90;;;13.70;53.20;;;;;;5030493;28;20509;-73
2021/12/11 06:44:05;;;;;;;5.35;3.58;;;13.60;60.60;;;;;;5030710;28;20573;-74
2021/12/11 06:46:33;;;;;;;5.97;3.80;;;13.60;60.60;;;;;;5029843;28;20084;-74
2021/12/11 06:48:59;;;;;;;5.53;4.10;;;13.80;56.30;;;;;;5030049;28;20413;-74
2021/12/11 06:51:26;;;;;;;5.47;3.70;;;;;;;;;;5047161;28;20132;-74
2021/12/11 06:53:58;;;;;;;4.43;3.50;;;13.70;60.30;;;;;;5030714;28;20557;-74
2021/12/11 06:56:25;;;;;;;4.40;3.63;;;13.50;60.50;;;;;;5032634;28;20053;-74
2021/12/11 06:58:52;;;;;;;4.68;3.90;;;13.60;60.60;;;;;;5037624;28;20076;-74
2021/12/11 07:01:19;;;;;;;5.80;3.88;;;13.60;60.40;;;;;;5040855;28;20056;-74
2021/12/11 07:03:46;;;;;;;4.88;3.80;;;13.60;60.30;;;;;;5032553;28;20407;-75
2021/12/11 07:06:13;;;;;;;4.95;3.45;;;13.80;60.40;;;;;;5039088;28;20128;-74
2021/12/11 07:08:40;;;;;;;4.63;3.60;;;;;;;;;;5038154;28;20053;-74
2021/12/11 07:11:09;;;;;;;5.18;3.65;;;13.70;60.70;;;;;;5057041;28;20141;-74
2021/12/11 07:13:36;;;;;;;4.57;3.38;;;13.60;60.30;;;;;;5038991;28;20128;-75
2021/12/11 07:16:03;;;;;;;5.03;3.80;;;13.50;60.20;;;;;;5043821;28;20136;-75
2021/12/11 07:18:31;;;;;;;4.65;3.65;;;13.40;59.80;;;;;;5043218;28;20124;-75
2021/12/11 07:20:58;;;;;;;5.13;3.92;;;;;;;;;;5039539;28;20046;-74
2021/12/11 07:23:25;;;;;;;5.15;3.60;;;13.80;60.40;;;;;;5043899;28;20714;-74
2021/12/11 07:25:54;;;;;;;4.47;3.67;;;14.30;53.40;;;;;;5035997;28;20045;-74
2021/12/11 07:28:22;;;;;;;4.55;3.67;;;13.70;60.50;;;;;;5033592;28;20077;-74
2021/12/11 07:30:50;;;;;;;5.00;3.33;;;13.70;60.30;;;;;;5033914;28;20053;-75
2021/12/11 07:33:17;;;;;;;5.15;3.70;;;13.90;60.50;;;;;;5033695;28;20132;-74
2021/12/11 07:35:44;;;;;;;5.60;4.32;;;13.60;60.20;;;;;;5052035;28;20073;-74
2021/12/11 07:38:11;;;;;;;15.15;4.90;;;13.10;59.70;;;;;;5030347;28;20081;-72
2021/12/11 07:40:39;;;;;;;5.03;4.25;;;13.60;52.60;;;;;;5033656;28;20148;-75
2021/12/11 07:43:06;;;;;;;7.05;4.03;;;;;;;;;;5042282;28;20140;-74
2021/12/11 07:45:34;;;;;;;5.38;4.10;;;13.60;59.90;;;;;;5049068;28;20645;-74
2021/12/11 07:48:01;;;;;;;6.53;4.13;;;13.70;60.00;;;;;;5049023;28;20143;-74
2021/12/11 07:50:28;;;;;;;5.95;4.22;;;13.70;60.10;;;;;;5036717;28;20088;-74
2021/12/11 07:52:55;;;;;;;6.60;3.85;;;13.60;59.90;;;;;;5033876;28;20472;-75
2021/12/11 07:55:22;;;;;;;6.05;3.92;;;13.60;60.00;;;;;;5033285;28;20072;-75
2021/12/11 07:57:49;;;;;;;4.70;3.65;;;;;;;;;;5033501;28;20128;-74
2021/12/11 08:00:18;;;;;;;6.00;4.25;;;13.60;59.90;;;;;;5049736;28;20805;-75
2021/12/11 08:02:46;;;;;;;4.82;3.95;;;13.50;58.90;;;;;;5033522;28;20092;-74
2021/12/11 08:05:13;;;;;;;5.20;3.80;;;;;;;;;;5033364;28;20057;-74
2021/12/11 08:07:41;;;;;;;5.90;3.92;;;;;;;;;;5033022;28;20673;-74
2021/12/11 08:10:09;;;;;;;6.03;4.10;;;13.50;59.90;;;;;;5032289;28;20129;-74
2021/12/11 08:12:36;;;;;;;5.35;3.80;;;13.60;60.00;;;;;;5032609;28;20091;-74
2021/12/11 08:15:03;;;;;;;5.10;3.90;;;;;;;;;;5033358;28;20472;-74
2021/12/11 08:17:30;;;;;;;4.72;3.72;;;13.60;60.00;;;;;;5032937;28;20132;-75
2021/12/11 08:19:58;;;;;;;4.75;3.67;;;13.60;52.70;;;;;;5033006;28;20461;-74
2021/12/11 08:22:25;;;;;;;4.38;3.63;;;;;;;;;;5067844;28;20045;-75
2021/12/11 08:24:52;;;;;;;5.55;3.80;;;13.70;60.00;;;;;;5058771;28;20101;-74
2021/12/11 08:27:21;;;;;;;4.60;3.65;;;13.60;52.70;;;;;;5033856;28;20038;-74
2021/12/11 08:29:49;;;;;;;5.53;3.92;;;13.60;57.80;;;;;;5032803;28;20149;-74
2021/12/11 08:32:16;;;;;;;4.72;3.70;;;;;;;;;;5040171;28;20100;-74
2021/12/11 08:34:42;;;;;;;5.28;3.90;;;13.50;60.20;;;;;;5042156;28;20147;-74
2021/12/11 08:37:12;;;;;;;4.28;3.75;;;13.50;60.20;;;;;;5058117;28;20132;-74
2021/12/11 08:39:40;;;;;;;4.78;3.60;;;13.30;60.00;;;;;;5032474;28;20081;-74
2021/12/11 08:42:08;;;;;;;5.80;3.90;;;13.50;60.20;;;;;;5032620;28;20143;-74
2021/12/11 08:44:37;;;;;;;4.93;4.20;;;13.70;60.20;;;;;;5032343;28;20055;-74
2021/12/11 08:47:05;;;;;;;5.25;4.07;;;13.50;60.30;;;;;;5032117;28;20049;-74
2021/12/11 08:49:34;;;;;;;5.88;3.78;;;13.60;60.00;;;;;;5048391;28;20128;-74
2021/12/11 08:52:05;;;;;;;6.45;3.90;;;13.60;52.70;;;;;;5032552;28;20076;-74
2021/12/11 08:54:33;;;;;;;4.60;3.92;;;13.50;60.10;;;;;;5032554;28;20566;-76
2021/12/11 08:57:05;;;;;;;4.93;4.00;;;13.60;52.70;;;;;;5031713;28;20055;-74
2021/12/11 08:59:32;;;;;;;5.50;3.80;;;13.60;52.70;;;;;;5048616;28;20061;-74
2021/12/11 09:02:01;;;;;;;5.07;3.78;;;13.50;60.10;;;;;;5032202;28;20139;-74
2021/12/11 09:04:38;;;;;;;6.68;3.70;;;13.60;60.10;;;;;;5031652;28;20159;-74
2021/12/11 09:07:06;;;;;;;5.20;3.90;;;13.60;59.10;;;;;;5031741;28;20128;-74
2021/12/11 09:09:36;;;;;;;5.43;3.70;;;13.60;60.00;;;;;;5031836;28;20132;-74
2021/12/11 09:12:06;;;;;;;5.35;3.78;;;13.50;59.90;;;;;;5031845;28;20132;-74
2021/12/11 09:14:34;;;;;;;6.50;3.75;;;13.50;55.00;;;;;;5032049;28;20063;-75
2021/12/11 09:17:04;;;;;;;5.78;4.00;;;13.50;59.80;;;;;;5031876;28;20128;-75
2021/12/11 09:19:33;;;;;;;5.75;4.30;;;13.70;60.20;;;;;;5030793;28;20545;-75
2021/12/11 09:22:02;;;;;;;5.18;3.83;;;13.40;60.10;;;;;;5028568;28;20100;-75
2021/12/11 09:24:31;;;;;;;5.18;3.80;;;13.70;56.60;;;;;;5030623;28;20080;-75
2021/12/11 09:27:02;;;;;;;6.70;4.07;;;13.70;60.00;;;;;;5031229;28;20554;-75
2021/12/11 09:29:33;;;;;;;4.85;3.75;;;13.60;52.60;;;;;;5030905;28;20511;-74
2021/12/11 09:32:06;;;;;;;5.25;3.92;;;13.50;59.80;;;;;;5031634;28;20088;-74
2021/12/11 09:34:39;;;;;;;4.85;3.70;;;13.60;52.60;;;;;;5030903;28;20133;-74
2021/12/11 09:37:06;;;;;;;4.93;3.80;;;13.70;59.90;;;;;;5028934;28;20136;-75
2021/12/11 09:39:35;;;;;;;5.22;4.13;;;13.70;60.10;;;;;;5031611;28;20219;-74
2021/12/11 09:42:01;;;;;;;7.53;3.85;;;13.70;58.10;;;;;;5039170;28;20132;-74
2021/12/11 09:44:31;;;;;;;5.60;3.90;;;13.60;59.80;;;;;;5041218;28;20490;-74
2021/12/11 09:47:00;;;;;;;4.28;3.70;;;13.70;60.00;;;;;;5049547;28;20144;-74
2021/12/11 09:49:28;;;;;;;5.45;3.60;;;13.70;60.10;;;;;;5030612;28;20045;-74
2021/12/11 09:52:01;;;;;;;4.32;3.33;;;13.80;60.10;;;;;;5044859;28;20087;-74
2021/12/11 09:54:28;;;;;;;4.80;3.90;;;13.60;59.80;;;;;;5041052;28;20103;-74
2021/12/11 09:56:57;;;;;;;5.03;3.45;;;13.60;59.80;;;;;;5038058;28;20132;-75
2021/12/11 09:59:24;;;;;;;5.15;4.13;;;13.70;58.60;;;;;;5030047;28;20053;-74
2021/12/11 10:01:54;;;;;;;5.55;3.80;;;13.70;52.60;;;;;;5030811;28;20137;-74
2021/12/11 10:04:28;;;;;;;5.35;3.78;;;13.70;52.60;;;;;;5046050;28;20136;-74
2021/12/11 10:07:23;;;;;;;5.40;3.33;;;13.80;60.10;;;;;;5030312;28;20053;-74
2021/12/11 10:09:51;;;;;;;4.60;3.50;;;13.60;52.60;;;;;;5039579;28;20057;-74
2021/12/11 10:12:19;;;;;;;4.95;3.60;;;13.50;60.00;;;;;;5029880;28;20140;-74
2021/12/11 10:14:48;;;;;;;4.30;3.55;;;13.70;59.90;;;;;;5030773;28;20054;-74
2021/12/11 10:17:20;;;;;;;6.70;3.65;;;13.60;60.10;;;;;;5030201;28;20084;-74
2021/12/11 10:19:46;;;;;;;4.47;3.65;;;13.30;59.80;;;;;;5030175;28;20115;-74
2021/12/11 10:22:15;;;;;;;4.38;3.55;;;13.70;60.10;;;;;;5030086;28;20463;-74
2021/12/11 10:24:42;;;;;;;4.57;3.60;;;;;;;;;;5030525;28;20054;-74
2021/12/11 10:27:11;;;;;;;5.00;3.67;;;13.70;59.90;;;;;;5029417;28;20100;-74
2021/12/11 10:29:40;;;;;;;4.93;3.30;;;13.80;60.10;;;;;;5028887;28;20132;-74
2021/12/11 10:32:08;;;;;;;4.32;3.38;;;13.80;58.80;;;;;;5030551;28;20058;-74
2021/12/11 10:34:36;;;;;;;6.82;4.00;;;14.10;60.20;;;;;;5030370;28;20508;-74
2021/12/11 10:37:07;;;;;;;6.03;4.28;;;13.90;60.00;;;;;;5031284;28;20049;-74
2021/12/11 10:39:34;;;;;;;4.35;3.38;;;13.60;59.70;;;;;;5030587;28;20103;-74
2021/12/11 10:42:01;;;;;;;4.05;3.50;;;13.80;59.60;;;;;;5030188;28;20128;-74
2021/12/11 10:44:29;;;;;;;3.88;3.47;;;13.50;59.60;;;;;;5030213;28;20140;-74
2021/12/11 10:46:58;;;;;;;5.00;3.75;;;13.90;60.10;;;;;;5030073;28;20219;-74
2021/12/11 10:49:25;;;;;;;4.32;3.45;;;14.00;60.10;;;;;;5035497;28;20136;-74
2021/12/11 10:51:54;;;;;;;4.03;3.47;;;14.00;59.50;;;;;;5037107;28;20087;-74
2021/12/11 10:54:22;;;;;;;4.88;3.67;;;13.60;59.60;;;;;;5036780;28;20068;-74
2021/12/11 10:56:49;;;;;;;4.55;3.22;;;;;;;;;;5036562;28;20135;-74
2021/12/11 10:59:17;;;;;;;6.13;3.97;;;13.80;59.50;;;;;;5037106;28;20155;-73
2021/12/11 11:01:47;;;;;;;3.75;3.08;;;14.20;59.90;;;;;;5044756;28;20179;-73
2021/12/11 11:04:15;;;;;;;5.35;3.78;;;14.10;59.60;;;;;;5058286;28;20132;-74
2021/12/11 11:06:45;;;;;;;4.13;3.30;;;14.10;59.70;;;;;;5045009;28;20141;-74
2021/12/11 11:09:14;;;;;;;4.47;3.60;;;14.10;56.30;;;;;;5056236;28;20049;-74
2021/12/11 11:11:41;;;;;;;4.72;3.20;;;14.10;52.40;;;;;;5051072;28;20140;-74
2021/12/11 11:14:10;;;;;;;4.50;3.50;;;13.60;59.30;;;;;;5046688;28;20129;-74
2021/12/11 11:16:38;;;;;;;5.15;3.30;;;14.00;59.70;;;;;;5036347;28;20544;-75
2021/12/11 11:19:04;;;;;;;5.57;3.15;;;14.10;59.40;;;;;;5036470;28;20128;-75
2021/12/11 11:21:34;;;;;;;5.75;3.33;;;14.10;52.30;;;;;;5036750;28;20578;-75
2021/12/11 11:24:01;;;;;;;4.10;3.20;;;14.10;59.30;;;;;;5035559;28;20468;-74
2021/12/11 11:26:30;;;;;;;3.67;2.90;;;14.20;53.20;;;;;;5034566;28;20144;-75
2021/12/11 11:28:58;;;;;;;4.60;3.00;;;13.60;59.30;;;;;;5035078;28;20067;-74
2021/12/11 11:31:26;;;;;;;3.63;2.90;;;14.10;52.20;;;;;;5035317;28;20140;-75
2021/12/11 11:33:54;;;;;;;4.40;3.00;;;13.70;59.00;;;;;;5035071;28;20097;-75
2021/12/11 11:36:23;;;;;;;4.35;3.05;;;14.20;59.40;;;;;;5033183;28;20458;-75
2021/12/11 11:38:51;;;;;;;3.63;3.13;;;14.10;52.30;;;;;;5035917;28;20096;-75
2021/12/11 11:41:21;;;;;;;3.85;2.92;;;14.20;52.40;;;;;;5036298;28;20080;-76
2021/12/11 11:43:49;;;;;;;5.20;2.90;;;14.20;59.40;;;;;;5036156;28;20128;-77
2021/12/11 11:46:16;;;;;;;3.40;2.85;;;14.00;59.60;;;;;;5036445;28;20174;-75
2021/12/11 11:48:44;;;;;;;4.10;3.00;;;14.10;52.40;;;;;;5036213;28;20504;-75
2021/12/11 11:51:13;;;;;;;3.83;3.00;;;14.00;59.70;;;;;;5052896;28;20055;-75
2021/12/11 11:53:40;;;;;;;3.83;3.10;;;14.20;59.90;;;;;;5036427;28;20148;-75
2021/12/11 11:56:09;;;;;;;5.00;3.40;;;14.20;53.40;;;;;;5036068;28;20053;-76
2021/12/11 11:58:36;;;;;;;4.85;3.17;;;13.70;59.20;;;;;;5036390;28;20136;-75
2021/12/11 12:01:07;;;;;;;3.60;3.00;;;14.10;52.40;;;;;;5033275;28;20137;-75
2021/12/11 12:03:34;;;;;;;3.97;2.80;;;14.10;59.70;;;;;;5033095;28;20135;-76
2021/12/11 12:06:02;;;;;;;4.70;3.00;;;14.10;57.40;;;;;;5033635;28;20565;-76
2021/12/11 12:08:29;;;;;;;3.95;2.63;;;14.10;59.60;;;;;;5033056;28;20167;-75
2021/12/11 12:10:56;;;;;;;3.97;2.72;;;;;;;;;;5032972;28;20046;-75
2021/12/11 12:13:24;;;;;;;4.25;2.80;;;15.30;54.80;;;;;;5033026;28;20128;-75
2021/12/11 12:15:53;;;;;;;6.00;2.90;;;14.30;59.70;;;;;;5032806;28;20085;-75
2021/12/11 12:18:21;;;;;;;4.13;3.05;;;14.10;59.60;;;;;;5032829;28;20052;-75
2021/12/11 12:20:49;;;;;;;4.10;2.90;;;14.10;59.50;;;;;;5049619;28;20491;-76
2021/12/11 12:23:15;;;;;;;3.55;3.00;;;14.20;54.70;;;;;;5032785;28;20144;-76
2021/12/11 12:25:43;;;;;;;4.18;2.97;;;14.20;59.60;;;;;;5032544;28;20164;-76
2021/12/11 12:28:10;;;;;;;3.92;2.90;;;14.30;59.40;;;;;;5032346;28;20589;-76
2021/12/11 12:30:39;;;;;;;4.13;3.00;;;14.10;59.60;;;;;;5032996;28;20145;-76
2021/12/11 12:33:06;;;;;;;3.85;2.80;;;14.10;59.90;;;;;;5031917;28;20064;-76
2021/12/11 12:35:34;;;;;;;4.45;2.97;;;13.60;59.40;;;;;;5038011;28;20140;-76
2021/12/11 12:38:02;;;;;;;4.10;3.03;;;14.00;59.60;;;;;;5037852;28;20453;-76
2021/12/11 12:40:32;;;;;;;3.60;2.95;;;13.90;52.50;;;;;;5038752;28;20084;-76
2021/12/11 12:43:06;;;;;;;3.70;2.78;;;14.00;59.90;;;;;;5040893;28;20459;-76
2021/12/11 12:45:35;;;;;;;4.57;3.10;;;14.00;60.00;;;;;;5041605;28;20072;-76
2021/12/11 12:48:05;;;;;;;3.35;2.53;;;13.70;59.60;;;;;;5042236;28;20046;-75
2021/12/11 12:50:35;;;;;;;5.18;3.17;;;13.90;59.70;;;;;;5033875;28;20126;-75
2021/12/11 12:53:02;;;;;;;3.92;3.13;;;14.20;60.10;;;;;;5033236;28;20060;-76
2021/12/11 12:55:31;;;;;;;3.75;2.90;;;14.00;59.80;;;;;;5028881;28;20068;-76
2021/12/11 12:57:59;;;;;;;3.88;2.97;;;13.80;60.00;;;;;;5031715;28;20041;-76
2021/12/11 13:00:29;;;;;;;5.32;2.97;;;13.70;59.70;;;;;;5031590;28;20569;-75
2021/12/11 13:02:57;;;;;;;5.28;2.83;;;13.90;56.00;;;;;;5030056;28;20417;-77
2021/12/11 13:05:26;;;;;;;5.88;3.00;;;13.60;59.70;;;;;;5030581;28;20137;-74